createdAt,value
2022-12-28T00:01:56.956Z,-0.94
2022-12-28T00:07:16.357Z,-0.89
2022-12-28T00:12:35.417Z,-0.82
2022-12-28T00:17:54.943Z,-0.82
2022-12-28T00:23:13.874Z,-0.86
2022-12-28T00:28:32.832Z,-0.69
2022-12-28T00:33:52.298Z,-0.1
2022-12-28T00:39:11.707Z,0.21
2022-12-28T00:44:30.720Z,0.11
2022-12-28T00:49:50.433Z,-0.15
2022-12-28T00:55:10.044Z,-0.41
2022-12-28T01:00:29.068Z,-0.48
2022-12-28T01:05:48.785Z,-0.14
2022-12-28T01:11:07.979Z,-0.15
2022-12-28T01:16:27.744Z,-0.22
2022-12-28T01:21:47.344Z,-0.31
2022-12-28T01:27:06.847Z,-0.31
2022-12-28T01:32:25.791Z,0.23
2022-12-28T01:37:44.764Z,0.5
2022-12-28T01:43:03.211Z,0.68
2022-12-28T01:48:22.522Z,1.25
2022-12-28T01:53:42.223Z,1.16
2022-12-28T01:59:01.512Z,1.44
2022-12-28T02:04:20.356Z,1.81
2022-12-28T02:09:39.401Z,1.93
2022-12-28T02:14:58.230Z,2.08
2022-12-28T02:20:17.662Z,2.42
2022-12-28T02:25:36.840Z,2.43
2022-12-28T02:30:55.672Z,2.33
2022-12-28T02:36:18.076Z,2.6
2022-12-28T02:41:34.192Z,2.66
2022-12-28T02:46:53.771Z,2.61
2022-12-28T02:52:13.186Z,2.67
2022-12-28T02:57:32.017Z,2.79
2022-12-28T03:02:51.146Z,3.01
2022-12-28T03:08:10.727Z,3.17
2022-12-28T03:13:29.805Z,3.39
2022-12-28T03:18:48.966Z,3.58
2022-12-28T03:24:08.701Z,3.76
2022-12-28T03:29:27.872Z,3.89
2022-12-28T03:34:46.905Z,4.06
2022-12-28T03:40:05.714Z,4.17
2022-12-28T03:45:44.676Z,4.3
2022-12-28T03:50:44.246Z,4.19
2022-12-28T03:56:03.927Z,4.25
2022-12-28T04:01:22.960Z,4.36
2022-12-28T04:06:41.853Z,4.48
2022-12-28T04:12:00.553Z,4.62
2022-12-28T04:17:19.661Z,4.76
2022-12-28T04:22:38.861Z,4.76
2022-12-28T04:27:57.787Z,4.79
2022-12-28T04:33:17.473Z,4.79
2022-12-28T04:38:37.167Z,4.79
2022-12-28T04:43:56.316Z,4.82
2022-12-28T04:49:15.861Z,4.88
2022-12-28T04:54:35.116Z,4.92
2022-12-28T04:59:55.147Z,4.89
2022-12-28T05:05:14.253Z,4.85
2022-12-28T05:10:33.371Z,4.9
2022-12-28T05:15:52.316Z,4.92
2022-12-28T05:21:11.672Z,4.94
2022-12-28T05:26:31.208Z,4.98
2022-12-28T05:31:50.388Z,4.96
2022-12-28T05:37:09.995Z,5.05
2022-12-28T05:42:28.812Z,5.01
2022-12-28T05:47:47.650Z,5.01
2022-12-28T05:53:07.313Z,5
2022-12-28T05:58:26.192Z,5
2022-12-28T06:03:45.270Z,5
2022-12-28T06:09:04.135Z,5.06
2022-12-28T06:14:23.900Z,5.15
2022-12-28T06:19:43.241Z,5.2
2022-12-28T06:25:02.841Z,5.17
2022-12-28T06:30:22.537Z,5.19
2022-12-28T06:35:42.200Z,5.27
2022-12-28T06:41:13.160Z,5.31
2022-12-28T06:46:21.508Z,5.3
2022-12-28T06:51:40.800Z,5.34
2022-12-28T06:57:00.256Z,5.36
2022-12-28T07:02:19.794Z,5.41
2022-12-28T07:07:39.152Z,5.47
2022-12-28T07:12:57.987Z,5.58
2022-12-28T07:18:18.249Z,5.69
2022-12-28T07:23:37.785Z,5.72
2022-12-28T07:28:57.386Z,5.79
2022-12-28T07:34:15.253Z,5.88
2022-12-28T07:39:34.503Z,5.94
2022-12-28T07:44:53.996Z,6.03
2022-12-28T07:50:12.946Z,6.05
2022-12-28T07:55:31.776Z,6.02
2022-12-28T08:00:51.238Z,6.08
2022-12-28T08:06:10.027Z,6.08
2022-12-28T08:11:29.693Z,6.16
2022-12-28T08:16:48.670Z,6.25
2022-12-28T08:22:07.779Z,6.29
2022-12-28T08:27:27.481Z,6.36
2022-12-28T08:32:47.262Z,6.43
2022-12-28T08:38:06.625Z,6.49
2022-12-28T08:43:25.973Z,6.64
2022-12-28T08:48:45.614Z,6.7
2022-12-28T08:54:05.381Z,6.76
2022-12-28T08:59:24.671Z,6.92
2022-12-28T09:04:44.379Z,6.98
2022-12-28T09:10:03.604Z,7.05
2022-12-28T09:15:22.608Z,7.15
2022-12-28T09:20:46.058Z,7.22
2022-12-28T09:26:01.233Z,7.36
2022-12-28T09:31:20.917Z,7.45
2022-12-28T09:36:40.216Z,7.59
2022-12-28T09:42:00.264Z,7.66
2022-12-28T09:47:19.333Z,7.81
2022-12-28T09:52:38.191Z,7.87
2022-12-28T09:57:57.844Z,8
2022-12-28T10:03:17.113Z,8.12
2022-12-28T10:08:36.491Z,8.18
2022-12-28T10:13:55.707Z,8.27
2022-12-28T10:19:14.327Z,8.37
2022-12-28T10:24:33.361Z,8.51
2022-12-28T10:29:52.653Z,8.72
2022-12-28T10:35:12.375Z,9.32
2022-12-28T10:40:31.117Z,9.47
2022-12-28T10:45:50.831Z,9.41
2022-12-28T10:51:10.256Z,9.45
2022-12-28T10:56:29.754Z,9.47
2022-12-28T11:01:48.637Z,9.55
2022-12-28T11:07:07.968Z,9.54
2022-12-28T11:12:27.467Z,9.54
2022-12-28T11:17:46.742Z,9.68
2022-12-28T11:23:05.776Z,9.89
2022-12-28T11:28:25.480Z,10.09
2022-12-28T11:33:44.242Z,10.6
2022-12-28T11:39:03.657Z,10.46
2022-12-28T11:44:22.471Z,10.43
2022-12-28T11:49:42.022Z,10.7
2022-12-28T11:55:00.886Z,10.72
2022-12-28T12:00:22.978Z,10.68
2022-12-28T12:06:54.967Z,10.57
2022-12-28T12:10:59.899Z,10.4
2022-12-28T12:16:19.213Z,10.26
2022-12-28T12:21:38.056Z,9.91
2022-12-28T12:26:57.235Z,9.85
2022-12-28T12:32:14.790Z,9.83
2022-12-28T12:37:33.644Z,9.95
2022-12-28T12:42:53.086Z,10.2
2022-12-28T12:48:12.736Z,10.26
2022-12-28T12:53:32.055Z,10.12
2022-12-28T12:58:51.132Z,10
2022-12-28T13:04:10.385Z,9.96
2022-12-28T13:09:29.228Z,9.83
2022-12-28T13:14:48.456Z,9.74
2022-12-28T13:20:07.322Z,9.72
2022-12-28T13:25:26.849Z,9.64
2022-12-28T13:30:45.394Z,9.63
2022-12-28T13:36:04.086Z,9.63
2022-12-28T13:41:23.253Z,9.81
2022-12-28T13:46:42.889Z,10.33
2022-12-28T13:52:02.032Z,10.77
2022-12-28T13:57:45.630Z,10.29
2022-12-28T14:02:40.286Z,10.02
2022-12-28T14:07:59.903Z,9.88
2022-12-28T14:13:19.651Z,9.85
2022-12-28T14:18:39.279Z,9.82
2022-12-28T14:23:58.604Z,9.78
2022-12-28T14:30:32.795Z,9.77
2022-12-28T14:34:54.107Z,9.75
2022-12-28T14:39:22.138Z,9.68
2022-12-28T14:47:09.628Z,9.62
2022-12-28T14:52:29.093Z,9.59
2022-12-28T14:57:48.717Z,9.57
2022-12-28T15:03:07.903Z,9.54
2022-12-28T15:08:27.228Z,9.43
2022-12-28T15:13:46.121Z,9.37
2022-12-28T15:19:04.742Z,9.31
2022-12-28T15:24:27.372Z,9.26
2022-12-28T15:30:06.194Z,9.22
2022-12-28T15:35:02.492Z,9.18
2022-12-28T15:40:22.701Z,9.09
2022-12-28T15:45:42.375Z,8.96
2022-12-28T15:51:01.211Z,8.87
2022-12-28T15:56:19.657Z,8.76
2022-12-28T16:01:38.438Z,8.68
2022-12-28T16:06:57.866Z,8.8
2022-12-28T16:12:17.496Z,8.68
2022-12-28T16:17:41.810Z,8.7
2022-12-28T16:22:56.199Z,8.66
2022-12-28T16:28:15.833Z,8.58
2022-12-28T16:33:34.989Z,8.51
2022-12-28T16:38:54.098Z,8.35
2022-12-28T16:44:13.117Z,8.17
2022-12-28T16:49:32.426Z,8.07
2022-12-28T16:54:51.578Z,8.05
2022-12-28T17:00:11.103Z,8.04
2022-12-28T17:05:39.207Z,8.02
2022-12-28T17:10:49.752Z,7.95
2022-12-28T17:16:08.892Z,8.04
2022-12-28T17:21:28.009Z,8.02
2022-12-28T17:26:47.644Z,7.97
2022-12-28T17:32:06.797Z,8.01
2022-12-28T17:37:25.847Z,8.01
2022-12-28T17:42:44.694Z,7.97
2022-12-28T17:48:04.363Z,8
2022-12-28T17:53:23.353Z,8
2022-12-28T17:58:42.757Z,7.95
2022-12-28T18:04:02.976Z,7.98
2022-12-28T18:09:27.298Z,7.93
2022-12-28T18:14:41.005Z,7.9
2022-12-28T18:20:00.532Z,7.89
2022-12-28T18:25:19.921Z,7.89
2022-12-28T18:30:39.446Z,7.89
2022-12-28T18:35:59.063Z,7.93
2022-12-28T18:41:17.651Z,7.93
2022-12-28T18:46:37.106Z,8.02
2022-12-28T18:51:55.886Z,7.97
2022-12-28T18:57:14.983Z,7.91
2022-12-28T19:02:34.830Z,7.84
2022-12-28T19:07:53.536Z,7.91
2022-12-28T19:13:12.535Z,7.98
2022-12-28T19:18:31.361Z,8
2022-12-28T19:23:50.528Z,8.02
2022-12-28T19:29:09.958Z,8.14
2022-12-28T19:34:29.032Z,8.2
2022-12-28T19:39:50.244Z,8.2
2022-12-28T19:45:09.959Z,8.32
2022-12-28T19:50:27.464Z,8.31
2022-12-28T19:55:46.393Z,8.41
2022-12-28T20:01:05.165Z,8.38
2022-12-28T20:06:24.676Z,8.38
2022-12-28T20:11:43.953Z,8.31
2022-12-28T20:17:02.981Z,8.27
2022-12-28T20:22:22.106Z,8.32
2022-12-28T20:27:40.967Z,8.35
2022-12-28T20:32:59.797Z,8.31
2022-12-28T20:38:18.627Z,8.32
2022-12-28T20:43:37.959Z,8.35
2022-12-28T20:48:57.015Z,8.46
2022-12-28T20:54:16.665Z,8.55
2022-12-28T20:59:35.652Z,8.76
2022-12-28T21:04:55.036Z,8.76
2022-12-28T21:10:15.088Z,8.75
2022-12-28T21:15:34.147Z,8.84
2022-12-28T21:20:52.703Z,8.82
2022-12-28T21:26:12.275Z,8.89
2022-12-28T21:31:32.053Z,8.93
2022-12-28T21:36:51.373Z,9.06
2022-12-28T21:42:10.441Z,9.2
2022-12-28T21:47:29.741Z,9.34
2022-12-28T21:52:48.990Z,9.27
2022-12-28T21:58:08.316Z,9.26
2022-12-28T22:03:27.607Z,9.24
2022-12-28T22:08:47.087Z,9.31
2022-12-28T22:14:06.041Z,9.28
2022-12-28T22:19:25.671Z,9.37
2022-12-28T22:24:45.409Z,9.39
2022-12-28T22:30:04.950Z,9.3
2022-12-28T22:35:23.826Z,9.31
2022-12-28T22:40:42.682Z,9.32
2022-12-28T22:46:01.855Z,9.31
2022-12-28T22:51:21.204Z,9.37
2022-12-28T22:56:40.337Z,9.34
2022-12-28T23:01:59.468Z,9.34
2022-12-28T23:07:18.524Z,9.42
2022-12-28T23:12:37.321Z,9.47
2022-12-28T23:17:55.823Z,9.45
2022-12-28T23:23:15.290Z,9.58
2022-12-28T23:28:34.780Z,9.55
2022-12-28T23:33:54.098Z,9.51
2022-12-28T23:39:13.376Z,9.52
2022-12-28T23:44:32.231Z,9.58
2022-12-28T23:49:51.894Z,9.67
2022-12-28T23:55:11.560Z,9.62
